createdAt,value
2023-04-03T00:03:23.279Z,7.40
2023-04-03T00:08:24.705Z,7.45
2023-04-03T00:13:26.151Z,7.48
2023-04-03T00:18:27.542Z,7.57
2023-04-03T00:23:28.995Z,7.62
2023-04-03T00:28:32.518Z,7.72
2023-04-03T00:33:33.884Z,7.73
2023-04-03T00:38:35.608Z,7.68
2023-04-03T00:43:37.598Z,7.73
2023-04-03T00:48:47.965Z,7.66
2023-04-03T00:53:57.681Z,7.69
2023-04-03T00:59:07.146Z,7.78
2023-04-03T01:04:37.857Z,7.88
2023-04-03T01:09:40.481Z,7.86
2023-04-03T01:14:42.331Z,7.81
2023-04-03T01:19:53.989Z,7.84
2023-04-03T01:24:55.430Z,7.89
2023-04-03T01:29:58.764Z,7.86
2023-04-03T01:35:00.190Z,7.82
2023-04-03T01:40:01.588Z,7.78
2023-04-03T01:45:03.599Z,7.76
2023-04-03T01:50:05.278Z,7.73
2023-04-03T01:55:07.224Z,7.69
2023-04-03T02:00:09.869Z,7.70
2023-04-03T02:05:11.454Z,7.72
2023-04-03T02:10:13.281Z,7.65
2023-04-03T02:15:14.743Z,7.61
2023-04-03T02:20:16.190Z,7.51
2023-04-03T02:25:18.672Z,7.41
2023-04-03T02:30:20.348Z,7.38
2023-04-03T02:35:21.729Z,7.38
2023-04-03T02:40:23.110Z,7.36
2023-04-03T02:45:24.437Z,7.28
2023-04-03T02:50:25.812Z,7.17
2023-04-03T02:55:27.228Z,7.08
2023-04-03T03:00:28.736Z,7.00
2023-04-03T03:05:31.238Z,7.04
2023-04-03T03:10:32.597Z,7.06
2023-04-03T03:15:33.966Z,7.00
2023-04-03T03:20:35.617Z,6.97
2023-04-03T03:25:43.061Z,6.96
2023-04-03T03:30:44.406Z,6.89
2023-04-03T03:35:46.365Z,6.80
2023-04-03T03:40:49.614Z,6.67
2023-04-03T03:45:54.816Z,6.60
2023-04-03T03:50:56.175Z,6.54
2023-04-03T03:55:57.653Z,6.40
2023-04-03T04:01:03.320Z,6.37
2023-04-03T04:06:05.048Z,6.30
2023-04-03T04:11:06.859Z,6.18
2023-04-03T04:16:09.126Z,6.12
2023-04-03T04:21:10.742Z,6.06
2023-04-03T04:26:12.093Z,6.09
2023-04-03T04:31:13.486Z,6.01
2023-04-03T04:36:15.816Z,5.90
2023-04-03T04:41:18.642Z,5.85
2023-04-03T04:46:20.295Z,5.67
2023-04-03T04:51:21.840Z,5.60
2023-04-03T04:56:23.214Z,5.49
2023-04-03T05:01:24.768Z,5.53
2023-04-03T05:06:26.231Z,5.52
2023-04-03T05:11:27.859Z,5.48
2023-04-03T05:16:29.339Z,5.46
2023-04-03T05:21:33.336Z,5.31
2023-04-03T05:26:34.968Z,5.23
2023-04-03T05:31:36.477Z,5.18
2023-04-03T05:36:37.877Z,5.12
2023-04-03T05:41:39.405Z,5.12
2023-04-03T05:46:40.758Z,5.04
2023-04-03T05:51:42.507Z,4.95
2023-04-03T05:56:43.922Z,4.97
2023-04-03T06:01:45.469Z,4.88
2023-04-03T06:06:52.951Z,4.96
2023-04-03T06:11:54.401Z,4.95
2023-04-03T06:16:56.080Z,5.00
2023-04-03T06:21:57.758Z,5.04
2023-04-03T06:26:59.550Z,5.07
2023-04-03T06:32:00.889Z,5.13
2023-04-03T06:37:02.352Z,5.22
2023-04-03T06:42:03.744Z,5.29
2023-04-03T06:47:05.506Z,5.33
2023-04-03T06:52:06.928Z,5.37
2023-04-03T06:57:08.737Z,5.38
2023-04-03T07:02:12.515Z,5.40
2023-04-03T07:07:14.094Z,5.49
2023-04-03T07:12:15.994Z,5.53
2023-04-03T07:17:17.395Z,5.54
2023-04-03T07:22:18.857Z,5.66
2023-04-03T07:27:20.526Z,5.82
2023-04-03T07:32:21.860Z,5.90
2023-04-03T07:37:23.388Z,6.17
2023-04-03T07:42:24.747Z,6.17
2023-04-03T07:47:26.146Z,6.28
2023-04-03T07:52:27.501Z,6.32
2023-04-03T07:57:28.927Z,6.36
2023-04-03T08:02:30.337Z,6.48
2023-04-03T08:07:31.753Z,6.64
2023-04-03T08:12:33.274Z,6.75
2023-04-03T08:17:35.633Z,6.82
2023-04-03T08:22:37.040Z,6.96
2023-04-03T08:27:38.873Z,7.21
2023-04-03T08:32:42.797Z,7.24
2023-04-03T08:37:44.206Z,7.28
2023-04-03T08:42:57.814Z,7.37
2023-04-03T08:48:13.040Z,7.42
2023-04-03T08:53:22.407Z,7.58
2023-04-03T08:58:30.290Z,7.59
2023-04-03T09:03:34.179Z,7.72
2023-04-03T09:08:46.734Z,7.75
2023-04-03T09:14:33.087Z,7.89
2023-04-03T09:19:45.571Z,7.88
2023-04-03T09:24:53.274Z,7.88
2023-04-03T09:29:57.279Z,7.96
2023-04-03T09:35:19.085Z,8.17
2023-04-03T09:40:25.815Z,8.25
2023-04-03T09:45:29.336Z,8.27
2023-04-03T09:50:31.356Z,8.28
2023-04-03T09:55:32.708Z,8.26
2023-04-03T10:00:37.096Z,8.45
2023-04-03T10:05:42.017Z,8.53
2023-04-03T10:10:46.482Z,8.66
2023-04-03T10:16:04.162Z,8.90
2023-04-03T10:21:26.684Z,9.04
2023-04-03T10:26:46.427Z,9.19
2023-04-03T10:32:26.836Z,9.46
2023-04-03T10:37:37.680Z,9.77
2023-04-03T10:43:00.904Z,10.17
2023-04-03T10:48:18.215Z,10.42
2023-04-03T10:53:38.738Z,10.66
2023-04-03T10:58:44.746Z,10.89
2023-04-03T11:03:56.615Z,11.28
2023-04-03T11:09:07.694Z,11.34
2023-04-03T11:14:17.155Z,11.55
2023-04-03T11:19:24.942Z,11.81
2023-04-03T11:24:30.681Z,11.93
2023-04-03T11:29:39.155Z,12.03
2023-04-03T11:34:44.245Z,11.95
2023-04-03T11:39:57.782Z,11.80
2023-04-03T11:45:30.814Z,12.15
2023-04-03T11:50:42.138Z,12.36
2023-04-03T11:55:49.639Z,12.38
2023-04-03T12:00:58.907Z,12.78
2023-04-03T12:06:12.445Z,13.07
2023-04-03T12:11:13.971Z,12.77
2023-04-03T12:16:30.074Z,12.84
2023-04-03T12:21:37.378Z,12.96
2023-04-03T12:27:00.154Z,13.11
2023-04-03T12:32:08.412Z,13.12
2023-04-03T12:37:22.738Z,13.41
2023-04-03T12:42:26.836Z,14.01
2023-04-03T12:47:38.853Z,13.93
2023-04-03T12:52:48.532Z,14.00
2023-04-03T12:57:50.042Z,14.22
2023-04-03T13:02:51.553Z,14.20
2023-04-03T13:08:00.992Z,14.06
2023-04-03T13:13:10.198Z,14.34
2023-04-03T13:18:29.925Z,14.55
2023-04-03T13:23:32.537Z,14.51
2023-04-03T13:28:35.207Z,14.65
2023-04-03T13:33:40.832Z,14.51
2023-04-03T13:38:42.315Z,14.68
2023-04-03T13:43:43.744Z,15.04
2023-04-03T13:48:48.165Z,15.06
2023-04-03T13:53:57.787Z,15.04
2023-04-03T13:59:22.040Z,15.21
2023-04-03T14:04:28.487Z,15.54
2023-04-03T14:09:30.689Z,15.60
2023-04-03T14:14:34.700Z,15.61
2023-04-03T14:19:36.666Z,15.73
2023-04-03T14:24:39.442Z,15.75
2023-04-03T14:29:40.798Z,16.11
2023-04-03T14:34:43.773Z,16.51
2023-04-03T14:39:46.200Z,17.04
2023-04-03T14:44:47.889Z,17.64
2023-04-03T14:49:49.306Z,19.05
2023-04-03T14:54:51.988Z,19.41
2023-04-03T14:59:53.515Z,20.18
2023-04-03T15:04:56.419Z,20.15
2023-04-03T15:09:58.130Z,18.94
2023-04-03T15:15:02.048Z,18.02
2023-04-03T15:20:14.048Z,17.21
2023-04-03T15:25:16.303Z,16.65
2023-04-03T15:30:19.767Z,17.46
2023-04-03T15:35:21.266Z,17.42
2023-04-03T15:40:22.680Z,16.91
2023-04-03T15:45:24.280Z,16.12
2023-04-03T15:50:25.921Z,15.73
2023-04-03T15:55:29.617Z,15.41
2023-04-03T16:00:33.088Z,15.17
2023-04-03T16:05:36.561Z,14.78
2023-04-03T16:10:39.244Z,14.67
2023-04-03T16:15:41.372Z,14.39
2023-04-03T16:20:44.596Z,14.22
2023-04-03T16:25:47.183Z,14.28
2023-04-03T16:30:50.083Z,14.20
2023-04-03T16:35:52.860Z,14.04
2023-04-03T16:40:57.450Z,13.76
2023-04-03T16:45:58.991Z,13.63
2023-04-03T16:51:00.749Z,13.53
2023-04-03T16:56:02.159Z,13.54
2023-04-03T17:01:13.837Z,13.28
2023-04-03T17:06:20.937Z,13.15
2023-04-03T17:11:22.564Z,12.73
2023-04-03T17:16:25.197Z,12.42
2023-04-03T17:21:27.337Z,11.99
2023-04-03T17:26:29.466Z,11.52
2023-04-03T17:31:31.030Z,11.18
2023-04-03T17:36:33.871Z,10.88
2023-04-03T17:41:35.529Z,10.55
2023-04-03T17:46:36.932Z,10.18
2023-04-03T17:51:38.331Z,9.95
2023-04-03T17:56:39.887Z,9.53
2023-04-03T18:01:44.186Z,9.44
2023-04-03T18:06:48.831Z,9.12
2023-04-03T18:11:51.877Z,8.90
2023-04-03T18:16:53.496Z,8.80
2023-04-03T18:22:01.974Z,8.57
2023-04-03T18:27:09.962Z,8.34
2023-04-03T18:32:14.374Z,8.16
2023-04-03T18:37:16.364Z,8.02
2023-04-03T18:42:21.394Z,7.90
2023-04-03T18:47:23.116Z,7.69
2023-04-03T18:52:25.493Z,7.59
2023-04-03T18:57:26.903Z,7.49
2023-04-03T19:02:28.645Z,7.43
2023-04-03T19:07:30.147Z,7.35
2023-04-03T19:12:31.691Z,7.25
2023-04-03T19:17:33.061Z,7.13
2023-04-03T19:22:34.800Z,7.07
2023-04-03T19:27:37.236Z,6.95
2023-04-03T19:32:38.744Z,6.84
2023-04-03T19:37:40.463Z,6.76
2023-04-03T19:42:42.951Z,6.64
2023-04-03T19:47:45.025Z,6.53
2023-04-03T19:52:46.570Z,6.44
2023-04-03T19:57:49.914Z,6.38
2023-04-03T20:02:51.496Z,6.28
2023-04-03T20:07:53.110Z,6.18
2023-04-03T20:12:54.672Z,6.14
2023-04-03T20:17:57.390Z,6.05
2023-04-03T20:22:59.262Z,5.99
2023-04-03T20:28:00.758Z,5.92
2023-04-03T20:33:03.857Z,5.85
2023-04-03T20:38:07.162Z,5.75
2023-04-03T20:43:09.109Z,5.65
2023-04-03T20:48:13.112Z,5.56
2023-04-03T20:53:17.855Z,5.52
2023-04-03T20:58:19.819Z,5.42
2023-04-03T21:03:23.287Z,5.38
2023-04-03T21:09:02.276Z,5.27
2023-04-03T21:14:42.335Z,5.18
2023-04-03T21:19:46.399Z,5.16
2023-04-03T21:24:48.380Z,5.10
2023-04-03T21:29:50.342Z,5.01
2023-04-03T21:34:51.690Z,4.97
2023-04-03T21:39:53.186Z,4.91
2023-04-03T21:44:54.657Z,4.90
2023-04-03T21:49:56.485Z,4.86
2023-04-03T21:54:57.864Z,4.81
2023-04-03T21:59:59.447Z,4.71
2023-04-03T22:05:01.551Z,4.67
2023-04-03T22:10:03.229Z,4.60
2023-04-03T22:15:05.736Z,4.53
2023-04-03T22:20:08.057Z,4.43
2023-04-03T22:25:10.217Z,4.35
2023-04-03T22:30:12.045Z,4.30
2023-04-03T22:35:13.468Z,4.22
2023-04-03T22:40:14.954Z,4.18
2023-04-03T22:45:16.459Z,4.13
2023-04-03T22:50:17.793Z,4.12
2023-04-03T22:55:19.902Z,4.12
2023-04-03T23:00:21.482Z,4.07
2023-04-03T23:05:22.908Z,4.05
2023-04-03T23:10:24.286Z,3.92
2023-04-03T23:15:25.783Z,3.86
2023-04-03T23:20:27.121Z,3.84
2023-04-03T23:25:28.447Z,3.80
2023-04-03T23:30:29.837Z,3.75
2023-04-03T23:35:31.985Z,3.73
2023-04-03T23:40:33.351Z,3.65
2023-04-03T23:45:34.804Z,3.67
2023-04-03T23:50:37.193Z,3.68
2023-04-03T23:55:38.864Z,3.62
